Dades meteomassalio
Diari Summary for Abril 27, 2017 Units:  Metric    English   Both
« Previous Day
Next Day »
Diari Semanal Mensual Anual Personalitzat
  Maxima: Minima: Mijana:
Temperatura: -17.8 °C -15.7 °C -13.2 °C
Rosada: -17.8 °C -19.6 °C -17 °C
Humitat: Humidity % 30 % 66 %
Velocitat del vent: 0 km/h 0 km/h 26.9 km/h
Racha vent: 0 km/h - -
Vent:- - WNW
Pressio: 0 hPa 34327.3 hPa -
Pluja: 38.1 mm    
Historical Graphs
 
 
Tabular Data for Abril 27, 2017
Time Temperature Dew Point Pressure Wind Wind Speed Wind Gust Humidity Rainfall Rate (Hourly) solar Conditions
-17.8 °C -17.8 °C 0 hPa Calm     Humidity % 0 mm SolarRadiationWatts/m^2 W/m2 Conditions
00:03 -12.6 °C -17.7 °C 34337.4 hPa WNW 35.7 km/h 35.7 km/h 53 % 0 mm 0.0 W/m2 RA
00:08 -12.6 °C -17.7 °C 34337.4 hPa WNW 47.6 km/h 47.6 km/h 53 % 0 mm 0.0 W/m2 CLR
00:13 -12.8 °C -17.1 °C 34347.6 hPa WNW 50.7 km/h 50.7 km/h 58 % 0 mm 0.0 W/m2 CLR
00:18 -13.2 °C -17 °C 34337.4 hPa NW 51.8 km/h 51.8 km/h 62 % 0 mm 0.0 W/m2 CLR
00:23 -13.6 °C -16.9 °C 34347.6 hPa WNW 50.7 km/h 50.7 km/h 66 % 0 mm 0.0 W/m2 RA
00:28 -13.8 °C -16.8 °C 34347.6 hPa WNW 31.1 km/h 31.1 km/h 69 % 0 mm 0.0 W/m2
00:33 -13.9 °C -16.4 °C 34347.6 hPa NW 44.7 km/h 44.7 km/h 73 % 0 mm 0.0 W/m2 CLR
00:38 -13.9 °C -16.6 °C 34337.4 hPa WNW 38.8 km/h 38.8 km/h 72 % 0 mm 0.0 W/m2 CLR
00:43 -13.8 °C -16.5 °C 34337.4 hPa WSW 32.8 km/h 32.8 km/h 72 % 0 mm 0.0 W/m2 CLR
00:48 -13.8 °C -16.5 °C 34347.6 hPa WNW 29.8 km/h 29.8 km/h 71 % 0 mm 0.0 W/m2 CLR
00:53 -13.8 °C -16.4 °C 34347.6 hPa WNW 29.8 km/h 29.8 km/h 72 % 0 mm 0.0 W/m2 CLR
00:58 -13.8 °C -16.5 °C 34347.6 hPa WNW 32.8 km/h 32.8 km/h 71 % 0 mm 0.0 W/m2 CLR
01:03 -13.8 °C -16.5 °C 34347.6 hPa West 38.8 km/h 38.8 km/h 71 % 7.62 mm 0.0 W/m2 CLR
01:08 -13.8 °C -16.5 °C 34347.6 hPa WNW 38.8 km/h 38.8 km/h 71 % 7.62 mm 0.0 W/m2 CLR
01:13 -13.8 °C -16.4 °C 34361.1 hPa West 20.9 km/h 20.9 km/h 72 % 7.62 mm 0.0 W/m2 CLR
01:18 -13.9 °C -16.4 °C 34361.1 hPa WNW 29.8 km/h 29.8 km/h 73 % 7.62 mm 0.0 W/m2 CLR
01:23 -14 °C -16.4 °C 34361.1 hPa WSW 20.8 km/h 20.8 km/h 74 % 7.62 mm 0.0 W/m2 RA
01:28 -14.1 °C -16.3 °C 34361.1 hPa WNW 38.8 km/h 38.8 km/h 75 % 7.62 mm 0.0 W/m2
01:33 -14.1 °C -16.4 °C 34361.1 hPa WNW 20.8 km/h 20.8 km/h 75 % 7.62 mm 0.0 W/m2 CLR
01:38 -14.1 °C -16.4 °C 34361.1 hPa West 18.2 km/h 18.2 km/h 75 % 7.62 mm 0.0 W/m2 CLR
01:43 -14.1 °C -16.3 °C 34361.1 hPa Calm     76 % 7.62 mm 0.0 W/m2 CLR
01:48 -14.1 °C -16.2 °C 34361.1 hPa WSW 9 km/h 9 km/h 77 % 7.62 mm 0.0 W/m2 CLR
01:53 -14.1 °C -16.3 °C 34361.1 hPa Calm   0.8 km/h 76 % 7.62 mm 0.0 W/m2 CLR
01:58 -14.1 °C -16.3 °C 34361.1 hPa Calm     76 % 7.62 mm 0.0 W/m2 CLR
02:03 -14.1 °C -16.3 °C 34361.1 hPa Calm     76 % 7.62 mm 0.0 W/m2 CLR
02:08 -14.1 °C -16.3 °C 34371.3 hPa West 20.9 km/h 20.9 km/h 75 % 7.62 mm 0.0 W/m2 CLR
02:13 -14 °C -16.4 °C 34371.3 hPa NW 29.8 km/h 29.8 km/h 74 % 7.62 mm 0.0 W/m2 CLR
02:18 -14 °C -16.5 °C 34361.1 hPa NW 26.9 km/h 26.9 km/h 73 % 7.62 mm 0.0 W/m2 CLR
02:23 -14.1 °C -16.3 °C 34361.1 hPa NW 20.9 km/h 20.9 km/h 75 % 0 mm 0.0 W/m2 CLR
02:28 -14.1 °C -16.5 °C 34361.1 hPa Calm     74 % 0 mm 0.0 W/m2 CLR
02:33 -14.1 °C -16.4 °C 34361.1 hPa NW 20.9 km/h 20.9 km/h 75 % 0 mm 0.0 W/m2 CLR
02:38 -14.1 °C -16.5 °C 34361.1 hPa Calm   2.1 km/h 74 % 0 mm 0.0 W/m2 CLR
02:43 -14.1 °C -16.5 °C 34361.1 hPa NW 15 km/h 15 km/h 74 % 0 mm 0.0 W/m2 CLR
02:48 -14.1 °C -16.5 °C 34361.1 hPa WNW 26.9 km/h 26.9 km/h 74 % 0 mm 0.0 W/m2 CLR
02:54 -14.1 °C -16.3 °C 34361.1 hPa NNW 32.8 km/h 32.8 km/h 75 % 0 mm 0.0 W/m2 CLR
02:59 -14.1 °C -16.3 °C 34361.1 hPa WNW 29.8 km/h 29.8 km/h 76 % 0 mm 0.0 W/m2 CLR
03:04 -14.2 °C -16.3 °C 34371.3 hPa NW 29.8 km/h 29.8 km/h 77 % 0 mm 0.0 W/m2 CLR
03:09 -14.3 °C -16.3 °C 34361.1 hPa NW 35.7 km/h 35.7 km/h 78 % 0 mm 0.0 W/m2 CLR
03:14 -14.3 °C -16.2 °C 34371.3 hPa WNW 17.9 km/h 17.9 km/h 79 % 0 mm 0.0 W/m2 CLR
03:19 -14.4 °C -16.3 °C 34361.1 hPa NW 18.2 km/h 18.2 km/h 79 % 0 mm 0.0 W/m2 CLR
03:24 -14.4 °C -16.2 °C 34361.1 hPa NNW 23.8 km/h 23.8 km/h 80 % 0 mm 0.0 W/m2 CLR
03:29 -14.4 °C -16.2 °C 34361.1 hPa NNW 36.2 km/h 36.2 km/h 80 % 0 mm 0.0 W/m2 CLR
03:34 -14.6 °C -16.2 °C 34361.1 hPa NNW 26.9 km/h 26.9 km/h 81 % 0 mm 0.0 W/m2 CLR
03:39 -14.6 °C -16.2 °C 34361.1 hPa NW 31.1 km/h 31.1 km/h 82 % 0 mm 0.0 W/m2 CLR
03:44 -14.7 °C -16.2 °C 34361.1 hPa NW 32.8 km/h 32.8 km/h 83 % 0 mm 0.0 W/m2 CLR
03:49 -14.7 °C -16.1 °C 34361.1 hPa NW 26.9 km/h 26.9 km/h 84 % 0 mm 0.0 W/m2 CLR
03:54 -14.7 °C -16.1 °C 34361.1 hPa WNW 20.9 km/h 20.9 km/h 84 % 0 mm 0.0 W/m2 CLR
03:59 -14.8 °C -16.1 °C 34361.1 hPa West 26.9 km/h 26.9 km/h 85 % 0 mm 0.0 W/m2 CLR
04:04 -14.8 °C -16.2 °C 34361.1 hPa WNW 26.9 km/h 26.9 km/h 84 % 0 mm 0.0 W/m2 CLR
04:09 -14.8 °C -16.2 °C 34361.1 hPa NW 41.7 km/h 41.7 km/h 84 % 0 mm 0.0 W/m2 CLR
04:14 -14.9 °C -16.2 °C 34361.1 hPa NW 29.8 km/h 29.8 km/h 85 % 0 mm 0.0 W/m2 CLR
04:19 -14.9 °C -16.3 °C 34361.1 hPa NNW 32.8 km/h 32.8 km/h 85 % 0 mm 0.0 W/m2 CLR
04:24 -15 °C -16.3 °C 34361.1 hPa NW 26.9 km/h 26.9 km/h 85 % 0 mm 0.0 W/m2 CLR
04:29 -15.1 °C -16.3 °C 34361.1 hPa NW 26.9 km/h 26.9 km/h 86 % 0 mm 0.0 W/m2 CLR
04:34 -15.1 °C -16.3 °C 34361.1 hPa WNW 15.6 km/h 15.6 km/h 86 % 0 mm 0.0 W/m2 CLR
04:39 -15.1 °C -16.2 °C 34361.1 hPa WNW 23.8 km/h 23.8 km/h 87 % 0 mm 0.0 W/m2 CLR
04:44 -15.1 °C -16.2 °C 34361.1 hPa NNW 29.8 km/h 29.8 km/h 87 % 0 mm 0.0 W/m2 CLR
04:49 -15.2 °C -16.3 °C 34361.1 hPa WNW 20.9 km/h 20.9 km/h 87 % 0 mm 0.0 W/m2 CLR
04:54 -15.2 °C -16.3 °C 34361.1 hPa WNW 29.8 km/h 29.8 km/h 87 % 0 mm 0.0 W/m2 CLR
04:59 -15.3 °C -16.4 °C 34361.1 hPa WNW 29.8 km/h 29.8 km/h 87 % 0 mm 0.0 W/m2 CLR
05:04 -15.3 °C -16.3 °C 34347.6 hPa WNW 23.8 km/h 23.8 km/h 88 % 0 mm 0.0 W/m2 CLR
05:09 -15.3 °C -16.3 °C 34347.6 hPa West 23.8 km/h 23.8 km/h 88 % 0 mm 0.0 W/m2 CLR
05:14 -15.3 °C -16.3 °C 34361.1 hPa West 26.9 km/h 26.9 km/h 88 % 0 mm 0.0 W/m2 CLR
05:19 -15.4 °C -16.4 °C 34347.6 hPa West 25.9 km/h 25.9 km/h 88 % 0 mm 0.0 W/m2 CLR
05:24 -15.4 °C -16.4 °C 34347.6 hPa West 29.8 km/h 29.8 km/h 88 % 0 mm 0.0 W/m2 CLR
05:29 -15.4 °C -16.6 °C 34361.1 hPa West 38.8 km/h 38.8 km/h 87 % 0 mm 0.0 W/m2 CLR
05:34 -15.5 °C -16.6 °C 34361.1 hPa West 33.6 km/h 33.6 km/h 88 % 0 mm 0.0 W/m2 CLR
05:39 -15.6 °C -16.6 °C 34347.6 hPa West 38.8 km/h 38.8 km/h 87 % 0 mm 0.0 W/m2 CLR
05:44 -15.6 °C -16.7 °C 34347.6 hPa WSW 38.8 km/h 38.8 km/h 87 % 0 mm 0.0 W/m2 CLR
05:49 -15.6 °C -16.7 °C 34347.6 hPa West 32.8 km/h 32.8 km/h 87 % 0 mm 0.0 W/m2 CLR
05:54 -15.6 °C -16.7 °C 34337.4 hPa WSW 31.1 km/h 31.1 km/h 87 % 0 mm 0.0 W/m2 CLR
05:59 -15.7 °C -16.7 °C 34337.4 hPa West 29.8 km/h 29.8 km/h 87 % 0 mm 0.0 W/m2 CLR
06:04 -15.7 °C -16.7 °C 34337.4 hPa West 15.6 km/h 15.6 km/h 88 % 0 mm 0.0 W/m2 CLR
06:09 -15.6 °C -16.6 °C 34337.4 hPa WSW 18.2 km/h 18.2 km/h 88 % 0 mm 0.0 W/m2 CLR
06:14 -15.6 °C -16.6 °C 34337.4 hPa SSW 17.9 km/h 17.9 km/h 88 % 0 mm 0.0 W/m2 CLR
06:19 -15.6 °C -16.6 °C 34337.4 hPa WSW 20.9 km/h 20.9 km/h 88 % 0 mm 0.0 W/m2 CLR
06:24 -15.6 °C -16.6 °C 34337.4 hPa WSW 23.8 km/h 23.8 km/h 88 % 0 mm 0.0 W/m2 CLR
06:29 -15.6 °C -16.6 °C 34337.4 hPa WSW 23.8 km/h 23.8 km/h 88 % 0 mm 0.0 W/m2 CLR
06:34 -15.6 °C -16.6 °C 34337.4 hPa WSW 23.8 km/h 23.8 km/h 87 % 0 mm 0.0 W/m2 CLR
06:39 -15.6 °C -16.6 °C 34337.4 hPa WSW 23.8 km/h 23.8 km/h 88 % 0 mm 0.0 W/m2 CLR
06:44 -15.6 °C -16.6 °C 34337.4 hPa West 23.8 km/h 23.8 km/h 87 % 0 mm 0.0 W/m2 CLR
06:49 -15.6 °C -16.6 °C 34347.6 hPa WSW 26.9 km/h 26.9 km/h 88 % 7.62 mm 0.0 W/m2 RA
06:54 -15.6 °C -16.6 °C 34337.4 hPa West 29.8 km/h 29.8 km/h 88 % 7.62 mm 0.0 W/m2 CLR
06:59 -15.6 °C -16.6 °C 34337.4 hPa West 26.9 km/h 26.9 km/h 88 % 7.62 mm 0.0 W/m2 CLR
07:04 -15.6 °C -16.6 °C 34337.4 hPa West 29.8 km/h 29.8 km/h 88 % 12.7 mm 0.0 W/m2 RA
07:09 -15.6 °C -16.6 °C 34347.6 hPa West 31.1 km/h 31.1 km/h 88 % 12.7 mm 0.0 W/m2
07:14 -15.6 °C -16.6 °C 34347.6 hPa WSW 32.8 km/h 32.8 km/h 88 % 12.7 mm 0.0 W/m2 CLR
07:19 -15.7 °C -16.7 °C 34361.1 hPa WSW 29.8 km/h 29.8 km/h 88 % 12.7 mm 0.0 W/m2 OVC
07:24 -15.7 °C -16.7 °C 34361.1 hPa WNW 32.8 km/h 32.8 km/h 88 % 12.7 mm 0.0 W/m2 OVC
07:29 -15.7 °C -16.7 °C 34361.1 hPa West 29.8 km/h 29.8 km/h 88 % 12.7 mm 9.0 W/m2 RA
07:34 -15.7 °C -16.7 °C 34361.1 hPa WNW 29.8 km/h 29.8 km/h 88 % 12.7 mm 9.0 W/m2 BKN
07:39 -15.7 °C -16.6 °C 34361.1 hPa West 29.8 km/h 29.8 km/h 89 % 12.7 mm 7.0 W/m2 BKN
07:44 -15.6 °C -16.6 °C 34371.3 hPa West 17.9 km/h 17.9 km/h 89 % 12.7 mm 5.0 W/m2 OVC
07:49 -15.6 °C -16.6 °C 34371.3 hPa WSW 15 km/h 15 km/h 89 % 12.7 mm 5.0 W/m2 OVC
07:54 -15.6 °C -16.5 °C 34371.3 hPa West 17.9 km/h 17.9 km/h 89 % 12.7 mm 9.0 W/m2 BKN
08:00 -15.6 °C -16.5 °C 34371.3 hPa WSW 25.9 km/h 25.9 km/h 89 % 12.7 mm 7.0 W/m2 BKN
08:05 -15.5 °C -16.4 °C 34371.3 hPa West 11.9 km/h 11.9 km/h 89 % 7.62 mm 5.0 W/m2 BKN
08:10 -15.5 °C -16.4 °C 34371.3 hPa West 15 km/h 15 km/h 89 % 7.62 mm 11.0 W/m2 BKN
08:15 -15.5 °C -16.4 °C 34371.3 hPa West 12.9 km/h 12.9 km/h 89 % 7.62 mm 11.0 W/m2 BKN
08:20 -15.5 °C -16.4 °C 34371.3 hPa West 17.9 km/h 17.9 km/h 89 % 7.62 mm 14.0 W/m2 BKN
08:25 -15.5 °C -16.4 °C 34384.8 hPa West 10.3 km/h 10.3 km/h 89 % 7.62 mm 18.0 W/m2 BKN
08:30 -15.5 °C -16.4 °C 34384.8 hPa West 9 km/h 9 km/h 89 % 0 mm 23.0 W/m2 BKN
08:35 -15.4 °C -16.4 °C 34384.8 hPa West 11.9 km/h 11.9 km/h 89 % 7.62 mm 25.0 W/m2 RA
08:40 -15.5 °C -16.4 °C 34384.8 hPa WSW 20.9 km/h 20.9 km/h 89 % 7.62 mm 18.0 W/m2 BKN
08:45 -15.5 °C -16.4 °C 34384.8 hPa SW 15 km/h 15 km/h 89 % 7.62 mm 25.0 W/m2 BKN
08:50 -15.5 °C -16.4 °C 34384.8 hPa SW 11.9 km/h 11.9 km/h 89 % 7.62 mm 26.0 W/m2 BKN
08:55 -15.5 °C -16.4 °C 34384.8 hPa WSW 11.9 km/h 14 km/h 89 % 7.62 mm 33.0 W/m2 BKN
09:00 -15.5 °C -16.3 °C 34384.8 hPa SW 11.9 km/h 11.9 km/h 90 % 7.62 mm 42.0 W/m2 BKN
09:05 -15.5 °C -16.3 °C 34384.8 hPa SSW 15 km/h 15 km/h 90 % 7.62 mm 42.0 W/m2 BKN
09:10 -15.5 °C -16.3 °C 34384.8 hPa SSW 15.6 km/h 15.6 km/h 90 % 7.62 mm 46.0 W/m2 BKN
09:15 -15.5 °C -16.3 °C 34384.8 hPa SW 17.9 km/h 17.9 km/h 90 % 7.62 mm 84.0 W/m2 SCT
09:20 -15.5 °C -16.3 °C 34384.8 hPa SW 15.6 km/h 15.6 km/h 90 % 7.62 mm 88.0 W/m2 FEW
09:25 -15.5 °C -16.3 °C 34384.8 hPa SW 17.9 km/h 17.9 km/h 90 % 7.62 mm 81.0 W/m2 FEW
09:30 -15.4 °C -16.3 °C 34384.8 hPa WSW 23.8 km/h 23.8 km/h 90 % 7.62 mm 46.0 W/m2 FEW
09:35 -15.4 °C -16.3 °C 34384.8 hPa West 23.8 km/h 23.8 km/h 90 % 0 mm 44.0 W/m2 SCT
09:40 -15.4 °C -16.3 °C 34384.8 hPa WSW 23.8 km/h 23.8 km/h 90 % 0 mm 35.0 W/m2 BKN
09:45 -15.4 °C -16.2 °C 34384.8 hPa WSW 15 km/h 15 km/h 90 % 0 mm 37.0 W/m2 BKN
09:50 -15.4 °C -16.2 °C 34395 hPa West 17.9 km/h 17.9 km/h 90 % 0 mm 35.0 W/m2 BKN
09:55 -15.3 °C -16.2 °C 34395 hPa West 23.8 km/h 23.8 km/h 89 % 0 mm 63.0 W/m2 BKN
10:00 -15.2 °C -16.2 °C 34395 hPa WSW 29.8 km/h 29.8 km/h 89 % 0 mm 65.0 W/m2 SCT
10:05 -15.2 °C -16.2 °C 34395 hPa WNW 28.5 km/h 28.5 km/h 89 % 12.7 mm 77.0 W/m2 RA
10:10 -15.3 °C -16.2 °C 34405.1 hPa NW 26.9 km/h 26.9 km/h 89 % 12.7 mm 77.0 W/m2 FEW
10:11 -15.3 °C -16.2 °C 34405.1 hPa WNW 28.5 km/h 28.5 km/h 89 % 12.7 mm 77.0 W/m2 FEW
10:16 -15.3 °C -16.2 °C 34405.1 hPa WNW 26.9 km/h 26.9 km/h 89 % 12.7 mm 69.0 W/m2 FEW
10:21 -15.3 °C -16.2 °C 34405.1 hPa West 29.8 km/h 29.8 km/h 89 % 12.7 mm 63.0 W/m2 FEW
10:26 -15.3 °C -16.2 °C 34405.1 hPa West 26.9 km/h 26.9 km/h 89 % 12.7 mm 62.0 W/m2 SCT
10:31 -15.3 °C -16.2 °C 34405.1 hPa WNW 26.9 km/h 26.9 km/h 89 % 12.7 mm 42.0 W/m2 SCT
10:36 -15.3 °C -16.3 °C 34405.1 hPa WNW 32.8 km/h 32.8 km/h 88 % 12.7 mm 40.0 W/m2 SCT
10:41 -15.3 °C -16.2 °C 34405.1 hPa WNW 23.8 km/h 23.8 km/h 89 % 12.7 mm 49.0 W/m2 BKN
10:46 -15.2 °C -16.2 °C 34405.1 hPa WSW 23.8 km/h 23.8 km/h 89 % 12.7 mm 56.0 W/m2 SCT
10:51 -15.2 °C -16.2 °C 34405.1 hPa West 28.5 km/h 28.5 km/h 89 % 12.7 mm 62.0 W/m2 SCT
10:56 -15.2 °C -16.1 °C 34418.7 hPa West 29.8 km/h 29.8 km/h 89 % 12.7 mm 56.0 W/m2 SCT
11:01 -15.2 °C -16.2 °C 34405.1 hPa WNW 23.8 km/h 23.8 km/h 88 % 12.7 mm 65.0 W/m2 SCT
11:06 -15.1 °C -16.2 °C 34405.1 hPa West 26.9 km/h 26.9 km/h 88 % 0 mm 72.0 W/m2 SCT
11:11 -15.1 °C -16.1 °C 34405.1 hPa West 32.8 km/h 32.8 km/h 88 % 0 mm 105.0 W/m2 FEW
11:16 -15 °C -16 °C 34405.1 hPa West 23.8 km/h 23.8 km/h 88 % 0 mm 104.0 W/m2 CLR
11:21 -15 °C -16.1 °C 34418.7 hPa West 17.9 km/h 17.9 km/h 87 % 0 mm 100.0 W/m2 CLR
11:26 -15 °C -16.1 °C 34418.7 hPa WNW 23.8 km/h 23.8 km/h 87 % 0 mm 121.0 W/m2 CLR
11:31 -14.9 °C -16.2 °C 34418.7 hPa West 29.8 km/h 29.8 km/h 86 % 0 mm 153.0 W/m2 CLR
11:36 -14.9 °C -16.2 °C 34418.7 hPa West 29.8 km/h 29.8 km/h 86 % 0 mm 165.0 W/m2 CLR
11:41 -14.9 °C -16.2 °C 34418.7 hPa WSW 23.8 km/h 23.8 km/h 86 % 0 mm 144.0 W/m2 CLR
11:46 -14.9 °C -16.1 °C 34418.7 hPa West 23.3 km/h 23.3 km/h 86 % 0 mm 148.0 W/m2 CLR
11:51 -14.8 °C -16.2 °C 34405.1 hPa SW 15 km/h 15 km/h 85 % 0 mm 213.0 W/m2 CLR
11:56 -14.8 °C -16.1 °C 34418.7 hPa WSW 11.9 km/h 11.9 km/h 85 % 0 mm 169.0 W/m2 CLR
12:01 -14.7 °C -16 °C 34418.7 hPa West 15 km/h 15 km/h 85 % 0 mm 155.0 W/m2 CLR
12:06 -14.7 °C -16 °C 34418.7 hPa SW 17.9 km/h 17.9 km/h 85 % 0 mm 144.0 W/m2 CLR
12:11 -14.7 °C -16.1 °C 34418.7 hPa WSW 20.9 km/h 20.9 km/h 84 % 0 mm 181.0 W/m2 CLR
12:16 -14.6 °C -15.9 °C 34418.7 hPa SW 17.9 km/h 17.9 km/h 84 % 0 mm 178.0 W/m2 CLR
12:21 -14.5 °C -16 °C 34418.7 hPa WSW 17.9 km/h 17.9 km/h 83 % 0 mm 192.0 W/m2 CLR
12:26 -14.4 °C -16 °C 34405.1 hPa WSW 7.7 km/h 7.7 km/h 82 % 0 mm 306.0 W/m2 CLR
12:31 -14.3 °C -15.8 °C 34418.7 hPa Calm     82 % 0 mm 309.0 W/m2 CLR
12:36 -14.2 °C -15.8 °C 34418.7 hPa SW 9 km/h 9 km/h 81 % 0 mm 211.0 W/m2 CLR
12:41 -14.1 °C -15.8 °C 34405.1 hPa SW 9 km/h 9 km/h 81 % 0 mm 297.0 W/m2 CLR
12:46 -14.1 °C -15.8 °C 34405.1 hPa West 6 km/h 6 km/h 80 % 0 mm 283.0 W/m2 CLR
12:51 -13.9 °C -15.6 °C 34405.1 hPa WSW 3.1 km/h 4.3 km/h 81 % 0 mm 304.0 W/m2 CLR
12:56 -13.7 °C -15.7 °C 34405.1 hPa NW 9 km/h   78 % 0 mm 448.0 W/m2 CLR
13:01 -13.5 °C -15.3 °C 34405.1 hPa West 10.3 km/h 10.3 km/h 80 % 0 mm 605.0 W/m2 CLR
13:06 -13.4 °C -15.6 °C 34395 hPa WSW 9 km/h 9 km/h 76 % 0 mm 696.0 W/m2 CLR
13:11 -13.2 °C -15.3 °C 34395 hPa WSW 12.9 km/h 12.9 km/h 77 % 0 mm 663.0 W/m2 CLR
13:16 -12.9 °C -15.1 °C 34395 hPa Calm     77 % 0 mm 1213.0 W/m2 CLR
13:21 -12.7 °C -15 °C 34395 hPa SW 29.8 km/h 29.8 km/h 75 % 0 mm 645.0 W/m2 CLR
13:26 -12.7 °C -15.6 °C 34384.8 hPa WNW 41.7 km/h 41.7 km/h 70 % 0 mm 591.0 W/m2 CLR
13:31 -12.6 °C -15.2 °C 34384.8 hPa Calm     73 % 0 mm 461.0 W/m2 CLR
13:36 -12.4 °C -15.3 °C 34384.8 hPa WNW 32.8 km/h 32.8 km/h 70 % 0 mm 397.0 W/m2 CLR
13:41 -12.2 °C -15.4 °C 34384.8 hPa NNW 29.8 km/h 29.8 km/h 67 % 0 mm 788.0 W/m2 CLR
13:46 -12.2 °C -15.3 °C 34384.8 hPa West 29.8 km/h 29.8 km/h 68 % 0 mm 438.0 W/m2 CLR
13:51 -12.2 °C -15.6 °C 34384.8 hPa NW 35.7 km/h 35.7 km/h 66 % 0 mm 422.0 W/m2 CLR
13:56 -12.3 °C -15.5 °C 34384.8 hPa WNW 26.9 km/h 26.9 km/h 67 % 0 mm 369.0 W/m2 CLR
14:01 -12.3 °C -15.9 °C 34384.8 hPa NW 18.2 km/h 18.2 km/h 64 % 0 mm 274.0 W/m2 CLR
14:06 -12.2 °C -15.6 °C 34371.3 hPa WNW 50.7 km/h 50.7 km/h 66 % 0 mm 292.0 W/m2 CLR
14:12 -12.2 °C -15.7 °C 34384.8 hPa WNW 29.8 km/h 29.8 km/h 65 % 0 mm 434.0 W/m2 CLR
14:17 -12.1 °C -15.8 °C 34384.8 hPa NW 38.8 km/h 38.8 km/h 63 % 0 mm 759.0 W/m2 CLR
14:22 -12.1 °C -16.1 °C 34371.3 hPa NW 17.9 km/h 17.9 km/h 61 % 0 mm 274.0 W/m2 CLR
14:27 -12 °C -15.9 °C 34384.8 hPa NW 31.1 km/h 31.1 km/h 62 % 0 mm 385.0 W/m2 CLR
14:32 -11.8 °C -15.7 °C 34371.3 hPa WNW 28.5 km/h 28.5 km/h 62 % 0 mm 1009.0 W/m2 CLR
14:37 -11.7 °C -16.1 °C 34371.3 hPa West 20.9 km/h 20.9 km/h 58 % 0 mm 385.0 W/m2 CLR
14:42 -11.7 °C -16.1 °C 34371.3 hPa West 35.7 km/h 35.7 km/h 58 % 0 mm 383.0 W/m2 CLR
14:47 -11.6 °C -15.6 °C 34371.3 hPa NNE 10.3 km/h 10.9 km/h 61 % 0 mm 619.0 W/m2 CLR
14:52 -11.6 °C -16 °C 34371.3 hPa WNW 20.9 km/h 20.9 km/h 58 % 0 mm 287.0 W/m2 CLR
14:57 -11.6 °C -15.9 °C 34371.3 hPa NW 29.8 km/h 29.8 km/h 59 % 0 mm 279.0 W/m2 CLR
15:02 -11.6 °C -15.9 °C 34371.3 hPa WNW 3.1 km/h   59 % 0 mm 294.0 W/m2 CLR
15:07 -11.6 °C -15.8 °C 34371.3 hPa NNW 26.9 km/h 26.9 km/h 59 % 0 mm 378.0 W/m2 CLR
15:12 -11.3 °C -16 °C 34371.3 hPa WNW 32.8 km/h 32.8 km/h 56 % 0 mm 840.0 W/m2 CLR
15:17 -11 °C -15.9 °C 34361.1 hPa WNW 23.8 km/h 23.8 km/h 55 % 0 mm 965.0 W/m2 CLR
15:22 -10.8 °C -16.2 °C 34361.1 hPa WSW 23.8 km/h 23.8 km/h 52 % 0 mm 947.0 W/m2 CLR
15:27 -10.7 °C -15.6 °C 34361.1 hPa NNE 36.2 km/h 36.2 km/h 55 % 0 mm 918.0 W/m2 CLR
15:32 -10.6 °C -15.8 °C 34361.1 hPa WNW 26.9 km/h 26.9 km/h 53 % 0 mm 884.0 W/m2 CLR
15:37 -10.5 °C -16 °C 34361.1 hPa NW 32.8 km/h 32.8 km/h 51 % 0 mm 900.0 W/m2 CLR
15:42 -10.3 °C -16.3 °C 34361.1 hPa NW 38.8 km/h 38.8 km/h 48 % 0 mm 888.0 W/m2 CLR
15:47 -10.3 °C -16.3 °C 34361.1 hPa WNW 38.8 km/h 38.8 km/h 48 % 0 mm 932.0 W/m2 CLR
15:52 -10.4 °C -16.9 °C 34347.6 hPa NNE 26.9 km/h 26.9 km/h 45 % 0 mm 640.0 W/m2 CLR
15:57 -10.6 °C -16.4 °C 34347.6 hPa NW 26.9 km/h 26.9 km/h 49 % 0 mm 962.0 W/m2 CLR
16:02 -10.4 °C -16.4 °C 34347.6 hPa NW 3.1 km/h   48 % 0 mm 914.0 W/m2 CLR
16:07 -10.4 °C -16.6 °C 34347.6 hPa NNW 32.8 km/h 32.8 km/h 47 % 0 mm 206.0 W/m2 CLR
16:12 -10.4 °C -16.3 °C 34347.6 hPa WNW 29.8 km/h 29.8 km/h 48 % 0 mm 780.0 W/m2 CLR
16:17 -10.3 °C -17 °C 34347.6 hPa NW 6 km/h 6 km/h 44 % 0 mm 856.0 W/m2 CLR
16:22 -10.1 °C -16.2 °C 34337.4 hPa NW 38.8 km/h 38.8 km/h 47 % 0 mm 789.0 W/m2 CLR
16:27 -10.1 °C -16.8 °C 34337.4 hPa NW 17.9 km/h 17.9 km/h 44 % 0 mm 775.0 W/m2 CLR
16:32 -10.1 °C -17.3 °C 34337.4 hPa WNW 11.9 km/h 11.9 km/h 41 % 0 mm 770.0 W/m2 CLR
16:37 -10.1 °C -17.2 °C 34337.4 hPa NNW 32.8 km/h 32.8 km/h 42 % 0 mm 155.0 W/m2 CLR
16:42 -10.2 °C -17.3 °C 34337.4 hPa WNW 38.8 km/h 38.8 km/h 42 % 0 mm 297.0 W/m2 CLR
16:47 -10.2 °C -17.1 °C 34337.4 hPa NW 3.1 km/h 3.1 km/h 43 % 0 mm 763.0 W/m2 CLR
16:52 -10.1 °C -17 °C 34337.4 hPa WNW 20.9 km/h 20.9 km/h 43 % 0 mm 199.0 W/m2 CLR
16:57 -9.9 °C -16.8 °C 34337.4 hPa NW 20.9 km/h 20.9 km/h 43 % 0 mm 830.0 W/m2 CLR
17:02 -9.9 °C -17.4 °C 34327.3 hPa Calm     40 % 0 mm 211.0 W/m2 CLR
17:07 -9.9 °C -17.1 °C 34327.3 hPa WNW 29.8 km/h 29.8 km/h 41 % 0 mm 817.0 W/m2 CLR
17:12 -9.8 °C -17.4 °C 34327.3 hPa NW 31.1 km/h 31.1 km/h 39 % 0 mm 204.0 W/m2 CLR
17:17 -9.9 °C -18.2 °C 34327.3 hPa North 15 km/h   36 % 0 mm 202.0 W/m2 CLR
17:22 -9.9 °C -17.7 °C 34327.3 hPa NNW 26.9 km/h 26.9 km/h 38 % 0 mm 155.0 W/m2 CLR
17:27 -9.8 °C -18.3 °C 34327.3 hPa NW 38.8 km/h 38.8 km/h 35 % 0 mm 640.0 W/m2 CLR
17:32 -9.8 °C -18.1 °C 34327.3 hPa WNW 29.8 km/h 29.8 km/h 36 % 0 mm 613.0 W/m2 CLR
17:37 -9.6 °C -18.1 °C 34327.3 hPa North 32.8 km/h 32.8 km/h 35 % 0 mm 517.0 W/m2 CLR
17:42 -9.6 °C -18.8 °C 34327.3 hPa NNE 20.8 km/h 20.8 km/h 32 % 0 mm 564.0 W/m2 CLR
17:47 -9.6 °C -17.7 °C 34327.3 hPa WNW 29.8 km/h 29.8 km/h 37 % 0 mm 485.0 W/m2 CLR
17:52 -9.7 °C -18.4 °C 34337.4 hPa North 32.8 km/h 32.8 km/h 34 % 0 mm 114.0 W/m2 CLR
17:57 -9.7 °C -18.2 °C 34327.3 hPa North 23.3 km/h 23.3 km/h 35 % 0 mm 559.0 W/m2 CLR
18:02 -9.6 °C -18.1 °C 34327.3 hPa NNW 2.6 km/h 2.6 km/h 35 % 0 mm 520.0 W/m2 CLR
18:07 -9.3 °C -18.1 °C 34327.3 hPa WNW 6 km/h 6 km/h 34 % 0 mm 506.0 W/m2 CLR
18:12 -9.3 °C -18.5 °C 34337.4 hPa WNW 28.5 km/h 28.5 km/h 32 % 0 mm 492.0 W/m2 CLR
18:17 -9.4 °C -18.7 °C 34327.3 hPa NW 41.7 km/h 41.7 km/h 32 % 0 mm 457.0 W/m2 CLR
18:22 -9.3 °C -18.1 °C 34337.4 hPa WNW 26.9 km/h 26.9 km/h 34 % 0 mm 434.0 W/m2 CLR
18:27 -9.3 °C -18.6 °C 34337.4 hPa NW 35.7 km/h 35.7 km/h 32 % 0 mm 413.0 W/m2 CLR
18:32 -9.3 °C -18.6 °C 34337.4 hPa West 23.3 km/h 23.3 km/h 32 % 0 mm 399.0 W/m2 CLR
18:37 -9.4 °C -18.8 °C 34337.4 hPa WNW 44.7 km/h 44.7 km/h 31 % 0 mm 394.0 W/m2 CLR
18:42 -9.4 °C -18.7 °C 34337.4 hPa NW 50.7 km/h 50.7 km/h 32 % 0 mm 364.0 W/m2 CLR
18:47 -9.4 °C -18.7 °C 34337.4 hPa North 26.9 km/h 26.9 km/h 32 % 0 mm 341.0 W/m2 CLR
18:52 -9.4 °C -18.9 °C 34337.4 hPa NW 41.7 km/h 41.7 km/h 31 % 0 mm 325.0 W/m2 CLR
18:57 -9.5 °C -18.9 °C 34347.6 hPa NW 50.7 km/h 50.7 km/h 31 % 0 mm 309.0 W/m2 CLR
19:02 -9.6 °C -19 °C 34347.6 hPa NNW 41.4 km/h 41.4 km/h 31 % 0 mm 290.0 W/m2 CLR
19:07 -9.7 °C -19.3 °C 34347.6 hPa NW 41.7 km/h 41.7 km/h 30 % 0 mm 272.0 W/m2 CLR
19:12 -9.6 °C -19.1 °C 34347.6 hPa WNW 35.7 km/h 35.7 km/h 31 % 0 mm 255.0 W/m2 CLR
19:13 -9.7 °C -19.1 °C 34347.6 hPa WNW 35.7 km/h 35.7 km/h 31 % 0 mm 255.0 W/m2 CLR
19:18 -9.7 °C -19.1 °C 34361.1 hPa WNW 50.7 km/h 50.7 km/h 31 % 0 mm 236.0 W/m2 CLR
19:23 -9.8 °C -19.2 °C 34361.1 hPa NW 29.8 km/h 29.8 km/h 31 % 0 mm 216.0 W/m2 CLR
19:28 -9.7 °C -19.1 °C 34361.1 hPa WNW 38.8 km/h 38.8 km/h 31 % 0 mm 199.0 W/m2 CLR
19:33 -9.8 °C -19.2 °C 34361.1 hPa NNW 38.8 km/h 38.8 km/h 31 % 0 mm 179.0 W/m2 CLR
19:38 -9.8 °C -19.3 °C 34361.1 hPa WNW 26.9 km/h 26.9 km/h 31 % 0 mm 158.0 W/m2 CLR
19:43 -9.9 °C -19.3 °C 34361.1 hPa NW 47.6 km/h 47.6 km/h 31 % 0 mm 139.0 W/m2 CLR
19:48 -10.1 °C -19.4 °C 34361.1 hPa NW 41.7 km/h 41.7 km/h 31 % 0 mm 121.0 W/m2 CLR
19:53 -10.2 °C -19.5 °C 34371.3 hPa NW 47.6 km/h 47.6 km/h 31 % 0 mm 105.0 W/m2 CLR
19:58 -10.2 °C -19.6 °C 34371.3 hPa NW 50.7 km/h 50.7 km/h 31 % 0 mm 91.0 W/m2 CLR
20:03 -10.3 °C -19.4 °C 34371.3 hPa NW 38.8 km/h 38.8 km/h 32 % 0 mm 74.0 W/m2 FEW
20:08 -10.4 °C -19.2 °C 34371.3 hPa NW 29.8 km/h 29.8 km/h 33 % 0 mm 56.0 W/m2 SCT
20:13 -10.4 °C -19.1 °C 34384.8 hPa NW 29.8 km/h 29.8 km/h 34 % 0 mm 47.0 W/m2 SCT
20:18 -10.5 °C -19.1 °C 34384.8 hPa NW 35.7 km/h 35.7 km/h 34 % 0 mm 39.0 W/m2 BKN
20:23 -10.6 °C -19 °C 34384.8 hPa NNW 41.7 km/h 41.7 km/h 35 % 0 mm 26.0 W/m2 BKN
20:28 -10.7 °C -18.8 °C 34384.8 hPa NW 29.8 km/h 29.8 km/h 36 % 0 mm 21.0 W/m2 BKN
20:33 -10.8 °C -18.8 °C 34395 hPa NNW 29.8 km/h 29.8 km/h 37 % 0 mm 16.0 W/m2 BKN
20:38 -10.9 °C -19.1 °C 34395 hPa NW 32.8 km/h 32.8 km/h 36 % 0 mm 14.0 W/m2 BKN
20:43 -11.1 °C -19.2 °C 34395 hPa WNW 38.8 km/h 38.8 km/h 36 % 0 mm 11.0 W/m2 BKN
20:48 -11.2 °C -18.8 °C 34395 hPa NW 29.8 km/h 29.8 km/h 38 % 0 mm 7.0 W/m2 BKN
20:53 -11.3 °C -18.8 °C 34405.1 hPa WNW 28.5 km/h 28.5 km/h 39 % 0 mm 5.0 W/m2 OVC
20:58 -11.3 °C -19 °C 34405.1 hPa NW 44.1 km/h 44.1 km/h 38 % 0 mm 0.0 W/m2 OVC
21:03 -11.4 °C -18.9 °C 34405.1 hPa WNW 26.9 km/h 26.9 km/h 39 % 0 mm 0.0 W/m2 CLR
21:08 -11.5 °C -18.8 °C 34418.7 hPa West 38.8 km/h 38.8 km/h 40 % 0 mm 0.0 W/m2 CLR
21:13 -11.5 °C -19 °C 34418.7 hPa WNW 41.7 km/h 41.7 km/h 39 % 0 mm 0.0 W/m2 CLR
21:18 -11.6 °C -18.9 °C 34418.7 hPa WNW 35.7 km/h 35.7 km/h 40 % 0 mm 0.0 W/m2 CLR
21:23 -11.6 °C -19.1 °C 34418.7 hPa WNW 50.7 km/h 50.7 km/h 39 % 0 mm 0.0 W/m2 CLR
21:28 -11.7 °C -19.1 °C 34428.8 hPa NW 32.8 km/h 32.8 km/h 39 % 0 mm 0.0 W/m2 CLR
21:33 -11.7 °C -19.2 °C 34428.8 hPa WNW 44.7 km/h 44.7 km/h 39 % 0 mm 0.0 W/m2 CLR
21:38 -11.7 °C -19.2 °C 34428.8 hPa NW 56.6 km/h 56.6 km/h 39 % 0 mm 0.0 W/m2 CLR
21:43 -11.8 °C -19.3 °C 34428.8 hPa NNW 35.7 km/h 35.7 km/h 39 % 0 mm 0.0 W/m2 CLR
21:48 -11.8 °C -19.1 °C 34442.4 hPa NW 41.7 km/h 41.7 km/h 40 % 0 mm 0.0 W/m2 CLR
21:53 -11.9 °C -19 °C 34452.6 hPa NW 28.5 km/h 28.5 km/h 41 % 0 mm 0.0 W/m2 CLR
21:58 -12 °C -19.3 °C 34452.6 hPa NNW 38.8 km/h 38.8 km/h 40 % 0 mm 0.0 W/m2 CLR
22:03 -12.1 °C -19.1 °C 34452.6 hPa NNW 29.8 km/h 29.8 km/h 41 % 0 mm 0.0 W/m2 CLR
22:08 -12.1 °C -19.2 °C 34452.6 hPa NNW 29.8 km/h 29.8 km/h 41 % 0 mm 0.0 W/m2 CLR
22:13 -12.2 °C -19.2 °C 34462.7 hPa NW 41.7 km/h 41.7 km/h 41 % 0 mm 0.0 W/m2 CLR
22:18 -12.2 °C -19.1 °C 34462.7 hPa NNW 38.8 km/h 38.8 km/h 42 % 0 mm 0.0 W/m2 CLR
22:23 -12.3 °C -19.1 °C 34476.3 hPa NW 32.8 km/h 32.8 km/h 42 % 0 mm 0.0 W/m2 CLR
22:28 -12.3 °C -19 °C 34476.3 hPa NW 23.8 km/h 23.8 km/h 43 % 0 mm 0.0 W/m2 CLR
22:29 -12.3 °C -19 °C 34476.3 hPa WNW 26.9 km/h 26.9 km/h 43 % 0 mm 0.0 W/m2 CLR
22:34 -12.4 °C -18.9 °C 34486.4 hPa NW 29.8 km/h 29.8 km/h 44 % 0 mm 0.0 W/m2 CLR
22:39 -12.6 °C -18.8 °C 34486.4 hPa NNW 35.7 km/h 35.7 km/h 45 % 0 mm 0.0 W/m2 CLR
22:45 -12.6 °C -18.7 °C 34486.4 hPa NNW 32.8 km/h 32.8 km/h 46 % 0 mm 0.0 W/m2 CLR
22:50 -12.7 °C -18.6 °C 34486.4 hPa West 23.8 km/h 23.8 km/h 47 % 0 mm 0.0 W/m2 CLR
22:55 -12.8 °C -18.7 °C 34486.4 hPa WNW 29.8 km/h 29.8 km/h 47 % 0 mm 0.0 W/m2 CLR
23:00 -12.9 °C -18.7 °C 34486.4 hPa WNW 29.8 km/h 29.8 km/h 48 % 0 mm 0.0 W/m2 CLR
23:05 -12.9 °C -18.5 °C 34486.4 hPa NW 50.7 km/h 50.7 km/h 49 % 0 mm 0.0 W/m2 CLR
23:10 -12.9 °C -18.5 °C 34486.4 hPa NW 32.8 km/h 32.8 km/h 49 % 0 mm 0.0 W/m2 CLR
23:15 -13 °C -18.5 °C 34486.4 hPa NW 26.9 km/h 26.9 km/h 50 % 0 mm 0.0 W/m2 CLR
23:20 -13.1 °C -18.4 °C 34486.4 hPa WNW 29.8 km/h 29.8 km/h 51 % 0 mm 0.0 W/m2 CLR
23:25 -13.2 °C -18.3 °C 34496.6 hPa WNW 29.8 km/h 29.8 km/h 52 % 0 mm 0.0 W/m2 CLR
23:30 -13.2 °C -18.4 °C 34496.6 hPa WNW 31.1 km/h 31.1 km/h 52 % 0 mm 0.0 W/m2 CLR
23:35 -13.2 °C -18.4 °C 34496.6 hPa WNW 32.8 km/h 32.8 km/h 52 % 0 mm 0.0 W/m2 CLR
23:40 -13.3 °C -18.4 °C 34496.6 hPa WNW 29.8 km/h 29.8 km/h 52 % 0 mm 0.0 W/m2 CLR
23:45 -13.3 °C -18.2 °C 34496.6 hPa NNW 38.8 km/h 38.8 km/h 54 % 0 mm 0.0 W/m2 CLR
23:50 -13.4 °C -18.3 °C 34496.6 hPa NW 32.8 km/h 32.8 km/h 54 % 0 mm 0.0 W/m2 CLR
23:55 -13.6 °C -18.1 °C 34496.6 hPa WNW 38.8 km/h 38.8 km/h 56 % 0 mm 0.0 W/m2 CLR
Lo Temps de Massalio
Compliments of Weather Underground - 1.25 mb